createdAt,value
2022-08-31T00:02:23.631Z,15.90
2022-08-31T00:05:11.100Z,15.80
2022-08-31T00:07:57.334Z,15.80
2022-08-31T00:10:46.311Z,15.80
2022-08-31T00:13:35.314Z,15.80
2022-08-31T00:16:23.194Z,15.70
2022-08-31T00:19:10.159Z,15.70
2022-08-31T00:21:56.268Z,15.70
2022-08-31T00:24:42.584Z,15.80
2022-08-31T00:27:29.086Z,15.70
2022-08-31T00:30:15.140Z,15.70
2022-08-31T00:33:01.682Z,15.70
2022-08-31T00:35:47.931Z,15.70
2022-08-31T00:38:34.524Z,15.70
2022-08-31T00:41:23.926Z,15.70
2022-08-31T00:44:11.758Z,15.70
2022-08-31T00:46:58.108Z,15.70
2022-08-31T00:49:50.091Z,15.70
2022-08-31T00:52:39.671Z,15.60
2022-08-31T00:55:33.759Z,15.60
2022-08-31T00:58:19.848Z,15.60
2022-08-31T01:01:08.643Z,15.60
2022-08-31T01:03:55.241Z,15.60
2022-08-31T01:06:42.185Z,15.60
2022-08-31T01:09:33.155Z,15.60
2022-08-31T01:12:20.257Z,15.50
2022-08-31T01:15:08.561Z,15.60
2022-08-31T01:17:57.038Z,15.60
2022-08-31T01:21:01.251Z,15.50
2022-08-31T01:23:47.507Z,15.50
2022-08-31T01:26:33.842Z,15.50
2022-08-31T01:29:20.093Z,15.50
2022-08-31T01:32:06.656Z,15.40
2022-08-31T01:34:52.610Z,15.40
2022-08-31T01:37:39.548Z,15.40
2022-08-31T01:40:35.255Z,15.40
2022-08-31T01:43:21.939Z,15.40
2022-08-31T01:46:11.503Z,15.40
2022-08-31T01:48:57.421Z,15.30
2022-08-31T01:51:44.206Z,15.30
2022-08-31T01:54:30.861Z,15.30
2022-08-31T01:57:16.759Z,15.30
2022-08-31T02:00:47.639Z,15.30
2022-08-31T02:03:34.265Z,15.30
2022-08-31T02:06:20.177Z,15.20
2022-08-31T02:09:08.020Z,15.20
2022-08-31T02:11:55.751Z,15.20
2022-08-31T02:14:42.042Z,15.20
2022-08-31T02:17:28.250Z,15.10
2022-08-31T02:20:15.483Z,15.10
2022-08-31T02:23:03.387Z,15.10
2022-08-31T02:25:49.503Z,15.10
2022-08-31T02:28:36.650Z,15.10
2022-08-31T02:31:23.481Z,15.10
2022-08-31T02:34:17.239Z,15.10
2022-08-31T02:37:03.126Z,15.10
2022-08-31T02:39:51.058Z,15.10
2022-08-31T02:42:53.100Z,15.00
2022-08-31T02:45:42.567Z,15.00
2022-08-31T02:48:36.220Z,15.00
2022-08-31T02:51:24.329Z,14.90
2022-08-31T02:54:11.364Z,14.90
2022-08-31T02:56:57.698Z,14.90
2022-08-31T02:59:44.101Z,14.90
2022-08-31T03:02:32.065Z,14.90
2022-08-31T03:05:20.777Z,14.80
2022-08-31T03:08:07.328Z,14.80
2022-08-31T03:10:57.240Z,14.80
2022-08-31T03:13:43.572Z,14.80
2022-08-31T03:16:29.554Z,14.80
2022-08-31T03:19:15.534Z,14.70
2022-08-31T03:22:05.146Z,14.70
2022-08-31T03:24:51.388Z,14.70
2022-08-31T03:27:39.239Z,14.70
2022-08-31T03:30:25.542Z,14.70
2022-08-31T03:33:25.476Z,14.70
2022-08-31T03:36:11.698Z,14.80
2022-08-31T03:38:58.202Z,14.70
2022-08-31T03:41:44.153Z,14.80
2022-08-31T03:44:30.978Z,14.80
2022-08-31T03:47:17.384Z,14.80
2022-08-31T03:50:06.064Z,14.80
2022-08-31T03:53:09.476Z,14.70
2022-08-31T03:56:01.754Z,14.70
2022-08-31T03:58:51.229Z,14.70
2022-08-31T04:01:55.920Z,14.70
2022-08-31T04:05:00.681Z,14.80
2022-08-31T04:08:02.222Z,14.80
2022-08-31T04:11:10.175Z,14.90
2022-08-31T04:14:15.629Z,14.90
2022-08-31T04:17:22.148Z,15.00
2022-08-31T04:20:15.470Z,15.10
2022-08-31T04:23:05.819Z,15.10
2022-08-31T04:25:54.406Z,15.10
2022-08-31T04:28:40.253Z,15.20
2022-08-31T04:31:28.063Z,15.10
2022-08-31T04:34:14.984Z,15.20
2022-08-31T04:37:00.967Z,15.10
2022-08-31T04:39:50.372Z,15.10
2022-08-31T04:42:38.926Z,15.10
2022-08-31T04:45:24.891Z,15.00
2022-08-31T04:48:11.837Z,15.00
2022-08-31T04:51:07.842Z,15.00
2022-08-31T04:53:55.373Z,14.90
2022-08-31T04:56:44.618Z,14.90
2022-08-31T04:59:32.686Z,14.90
2022-08-31T05:02:46.787Z,14.90
2022-08-31T05:05:40.214Z,14.90
2022-08-31T05:08:27.771Z,14.90
2022-08-31T05:11:16.864Z,14.90
2022-08-31T05:14:05.884Z,15.00
2022-08-31T05:16:52.896Z,15.00
2022-08-31T05:19:42.894Z,15.10
2022-08-31T05:22:31.717Z,15.10
2022-08-31T05:25:18.970Z,15.20
2022-08-31T05:28:08.112Z,15.30
2022-08-31T05:30:54.452Z,15.30
2022-08-31T05:33:53.658Z,15.40
2022-08-31T05:36:55.398Z,15.40
2022-08-31T05:39:41.616Z,15.50
2022-08-31T05:42:28.718Z,15.50
2022-08-31T05:45:18.018Z,15.50
2022-08-31T05:48:05.615Z,15.50
2022-08-31T05:50:54.304Z,15.50
2022-08-31T05:53:41.167Z,15.50
2022-08-31T05:56:28.346Z,15.60
2022-08-31T05:59:15.380Z,15.60
2022-08-31T06:02:04.238Z,15.70
2022-08-31T06:04:57.221Z,15.70
2022-08-31T06:07:43.775Z,15.70
2022-08-31T06:10:33.016Z,15.80
2022-08-31T06:13:19.977Z,15.80
2022-08-31T06:16:07.017Z,15.80
2022-08-31T06:18:55.625Z,15.90
2022-08-31T06:21:49.712Z,15.90
2022-08-31T06:24:40.421Z,15.90
2022-08-31T06:27:27.538Z,15.90
2022-08-31T06:30:19.260Z,15.90
2022-08-31T06:33:06.836Z,15.90
2022-08-31T06:36:16.058Z,15.90
2022-08-31T06:39:19.571Z,15.90
2022-08-31T06:42:25.002Z,15.90
2022-08-31T06:45:16.765Z,16.00
2022-08-31T06:48:12.372Z,16.00
2022-08-31T06:50:59.281Z,16.10
2022-08-31T06:53:45.796Z,16.20
2022-08-31T06:56:52.430Z,16.40
2022-08-31T06:59:57.040Z,16.50
2022-08-31T07:03:23.228Z,16.60
2022-08-31T07:06:16.761Z,16.70
2022-08-31T07:09:05.628Z,16.80
2022-08-31T07:11:53.639Z,16.70
2022-08-31T07:14:39.701Z,16.70
2022-08-31T07:17:26.663Z,16.80
2022-08-31T07:20:13.262Z,16.80
2022-08-31T07:22:59.288Z,16.80
2022-08-31T07:25:51.249Z,16.90
2022-08-31T07:28:38.648Z,16.90
2022-08-31T07:31:41.248Z,17.00
2022-08-31T07:34:30.421Z,17.10
2022-08-31T07:37:50.130Z,17.20
2022-08-31T07:40:58.525Z,17.40
2022-08-31T07:43:44.827Z,17.60
2022-08-31T07:46:31.747Z,17.70
2022-08-31T07:49:19.137Z,17.80
2022-08-31T07:52:33.507Z,17.90
2022-08-31T07:55:29.088Z,18.10
2022-08-31T07:58:22.604Z,18.20
2022-08-31T08:01:09.059Z,18.30
2022-08-31T08:04:02.079Z,18.40
2022-08-31T08:07:28.296Z,18.40
2022-08-31T08:10:26.265Z,18.50
2022-08-31T08:13:44.522Z,18.60
2022-08-31T08:16:40.429Z,18.70
2022-08-31T08:19:49.141Z,18.80
2022-08-31T08:22:56.017Z,18.80
2022-08-31T08:25:51.519Z,18.90
2022-08-31T08:28:47.007Z,19.10
2022-08-31T08:31:34.357Z,19.20
2022-08-31T08:34:22.505Z,19.30
2022-08-31T08:37:31.032Z,19.40
2022-08-31T08:40:34.064Z,19.50
2022-08-31T08:43:32.300Z,19.60
2022-08-31T08:46:42.134Z,19.60
2022-08-31T08:49:54.733Z,19.70
2022-08-31T08:52:44.917Z,19.80
2022-08-31T08:55:36.918Z,19.80
2022-08-31T08:58:24.969Z,19.90
2022-08-31T09:01:21.929Z,19.90
2022-08-31T09:04:27.153Z,20.00
2022-08-31T09:07:37.587Z,20.00
2022-08-31T09:11:17.790Z,19.90
2022-08-31T09:14:15.331Z,19.90
2022-08-31T09:17:30.405Z,20.00
2022-08-31T09:20:17.657Z,20.10
2022-08-31T09:23:08.238Z,20.30
2022-08-31T09:25:58.815Z,20.50
2022-08-31T09:29:03.782Z,20.60
2022-08-31T09:32:09.956Z,20.70
2022-08-31T09:35:01.396Z,20.90
2022-08-31T09:38:02.119Z,21.00
2022-08-31T09:40:49.838Z,21.00
2022-08-31T09:43:38.122Z,21.10
2022-08-31T09:46:31.315Z,21.20
2022-08-31T09:49:26.293Z,21.20
2022-08-31T09:52:47.115Z,21.20
2022-08-31T09:55:33.059Z,21.30
2022-08-31T09:58:30.765Z,21.40
2022-08-31T10:01:39.637Z,21.60
2022-08-31T10:04:28.837Z,21.70
2022-08-31T10:07:37.929Z,21.80
2022-08-31T10:10:31.229Z,21.80
2022-08-31T10:13:38.293Z,21.80
2022-08-31T10:16:30.564Z,21.70
2022-08-31T10:19:30.415Z,21.70
2022-08-31T10:22:28.270Z,21.70
2022-08-31T10:25:26.793Z,21.80
2022-08-31T10:28:39.930Z,21.80
2022-08-31T10:31:36.884Z,21.80
2022-08-31T10:34:46.662Z,21.80
2022-08-31T10:37:49.144Z,21.70
2022-08-31T10:40:44.123Z,21.70
2022-08-31T10:44:23.697Z,21.70
2022-08-31T10:47:14.143Z,21.70
2022-08-31T10:50:10.788Z,21.70
2022-08-31T10:53:05.841Z,21.80
2022-08-31T10:56:14.432Z,22.00
2022-08-31T10:59:08.388Z,22.10
2022-08-31T11:02:09.051Z,22.10
2022-08-31T11:05:16.831Z,22.00
2022-08-31T11:08:27.241Z,22.00
2022-08-31T11:11:19.920Z,22.00
2022-08-31T11:14:09.922Z,22.00
2022-08-31T11:17:21.494Z,22.00
2022-08-31T11:20:26.482Z,22.10
2022-08-31T11:23:26.848Z,22.20
2022-08-31T11:26:12.695Z,22.40
2022-08-31T11:29:13.035Z,22.60
2022-08-31T11:32:11.050Z,22.80
2022-08-31T11:35:00.170Z,23.00
2022-08-31T11:37:50.937Z,23.10
2022-08-31T11:40:43.711Z,23.20
2022-08-31T11:43:52.226Z,23.20
2022-08-31T11:46:39.777Z,23.20
2022-08-31T11:49:35.225Z,23.00
2022-08-31T11:52:29.633Z,22.90
2022-08-31T11:55:22.683Z,22.60
2022-08-31T11:58:27.010Z,22.60
2022-08-31T12:01:18.986Z,22.60
2022-08-31T12:04:06.542Z,22.70
2022-08-31T12:06:54.981Z,22.70
2022-08-31T12:10:07.810Z,22.80
2022-08-31T12:13:19.988Z,22.90
2022-08-31T12:31:18.994Z,23.40
2022-08-31T12:34:16.699Z,23.40
2022-08-31T12:37:18.751Z,23.50
2022-08-31T12:40:22.497Z,23.50
2022-08-31T12:43:28.863Z,23.50
2022-08-31T12:46:15.194Z,23.60
2022-08-31T12:49:21.633Z,23.70
2022-08-31T12:52:38.440Z,23.80
2022-08-31T12:55:52.415Z,23.90
2022-08-31T12:59:15.732Z,24.00
2022-08-31T13:02:02.159Z,24.10
2022-08-31T13:04:48.987Z,24.20
2022-08-31T13:07:35.570Z,24.30
2022-08-31T13:10:35.685Z,24.40
2022-08-31T13:13:29.284Z,24.50
2022-08-31T13:16:15.536Z,24.60
2022-08-31T13:19:08.232Z,24.80
2022-08-31T13:22:17.198Z,24.90
2022-08-31T13:25:21.080Z,25.10
2022-08-31T13:28:14.357Z,25.30
2022-08-31T13:31:03.984Z,25.40
2022-08-31T13:33:51.610Z,25.50
2022-08-31T13:36:47.042Z,25.50
2022-08-31T13:39:42.808Z,25.60
2022-08-31T13:42:45.644Z,25.60
2022-08-31T13:45:58.148Z,25.60
2022-08-31T13:48:53.887Z,25.60
2022-08-31T13:51:45.135Z,25.60
2022-08-31T13:54:34.562Z,25.60
2022-08-31T13:57:25.774Z,25.50
2022-08-31T14:00:34.618Z,25.50
2022-08-31T14:03:58.949Z,25.40
2022-08-31T14:06:50.727Z,25.40
2022-08-31T14:09:44.830Z,25.30
2022-08-31T14:12:45.944Z,25.30
2022-08-31T14:15:53.470Z,25.20
2022-08-31T14:18:45.485Z,25.10
2022-08-31T14:21:35.054Z,25.00
2022-08-31T14:24:21.308Z,24.90
2022-08-31T14:27:08.229Z,24.90
2022-08-31T14:29:55.090Z,25.00
2022-08-31T14:32:45.896Z,25.10
2022-08-31T14:35:32.789Z,25.10
2022-08-31T14:38:19.033Z,25.30
2022-08-31T14:41:09.079Z,25.40
2022-08-31T14:43:58.696Z,25.50
2022-08-31T14:46:45.326Z,25.60
2022-08-31T14:49:36.324Z,25.70
2022-08-31T14:52:24.215Z,25.90
2022-08-31T14:55:12.260Z,26.00
2022-08-31T14:58:05.291Z,26.10
2022-08-31T15:00:53.753Z,26.20
2022-08-31T15:03:40.426Z,26.30
2022-08-31T15:06:27.531Z,26.40
2022-08-31T15:09:13.922Z,26.60
2022-08-31T15:12:01.226Z,26.70
2022-08-31T15:14:47.493Z,26.80
2022-08-31T15:17:34.091Z,27.00
2022-08-31T15:20:22.689Z,27.20
2022-08-31T15:23:12.637Z,27.50
2022-08-31T15:26:07.988Z,27.80
2022-08-31T15:28:53.878Z,28.20
2022-08-31T15:31:46.442Z,28.50
2022-08-31T15:34:33.104Z,28.90
2022-08-31T15:37:19.708Z,29.40
2022-08-31T15:40:10.253Z,30.00
2022-08-31T15:42:57.303Z,30.50
2022-08-31T15:45:43.399Z,31.00
2022-08-31T15:48:47.376Z,31.50
2022-08-31T15:51:35.194Z,32.00
2022-08-31T15:54:24.003Z,32.60
2022-08-31T15:57:12.093Z,33.10
2022-08-31T15:59:59.002Z,33.40
2022-08-31T16:02:45.504Z,33.70
2022-08-31T16:05:39.397Z,33.90
2022-08-31T16:08:27.547Z,34.20
2022-08-31T16:11:14.588Z,34.50
2022-08-31T16:14:04.764Z,34.70
2022-08-31T16:16:52.716Z,34.80
2022-08-31T16:19:39.557Z,34.40
2022-08-31T16:22:28.307Z,33.60
2022-08-31T16:25:17.643Z,32.60
2022-08-31T16:28:07.285Z,31.40
2022-08-31T16:30:53.540Z,30.10
2022-08-31T16:33:41.910Z,28.90
2022-08-31T16:36:28.545Z,27.90
2022-08-31T16:39:14.861Z,27.00
2022-08-31T16:42:00.931Z,26.20
2022-08-31T16:44:48.076Z,25.50
2022-08-31T16:47:34.575Z,24.90
2022-08-31T16:50:20.809Z,24.40
2022-08-31T16:53:09.246Z,23.90
2022-08-31T16:55:59.755Z,23.60
2022-08-31T16:58:54.295Z,23.30
2022-08-31T17:01:44.850Z,23.00
2022-08-31T17:07:42.609Z,22.50
2022-08-31T17:10:29.669Z,22.30
2022-08-31T17:13:17.151Z,22.10
2022-08-31T17:16:03.954Z,22.00
2022-08-31T17:18:54.690Z,21.90
2022-08-31T17:21:50.478Z,21.70
2022-08-31T17:24:45.571Z,21.60
2022-08-31T17:27:33.526Z,21.50
2022-08-31T17:30:20.218Z,21.50
2022-08-31T17:33:07.188Z,21.40
2022-08-31T17:35:54.029Z,21.30
2022-08-31T17:38:40.140Z,21.30
2022-08-31T17:41:29.458Z,21.30
2022-08-31T17:44:16.738Z,21.40
2022-08-31T17:47:03.996Z,21.70
2022-08-31T17:49:55.719Z,22.00
2022-08-31T17:52:41.690Z,22.30
2022-08-31T17:55:29.772Z,22.50
2022-08-31T17:58:19.230Z,22.90
2022-08-31T18:01:11.661Z,23.40
2022-08-31T18:04:00.067Z,23.80
2022-08-31T18:06:47.127Z,24.10
2022-08-31T18:09:36.394Z,24.20
2022-08-31T18:12:25.483Z,23.90
2022-08-31T18:15:14.455Z,23.30
2022-08-31T18:18:00.808Z,22.80
2022-08-31T18:20:46.728Z,22.30
2022-08-31T18:23:33.524Z,21.90
2022-08-31T18:26:26.694Z,21.50
2022-08-31T18:29:22.617Z,21.20
2022-08-31T18:32:11.418Z,20.90
2022-08-31T18:34:57.973Z,20.60
2022-08-31T18:37:44.789Z,20.30
2022-08-31T18:40:50.224Z,20.10
2022-08-31T18:43:55.203Z,19.90
2022-08-31T18:46:41.227Z,19.70
2022-08-31T18:49:34.532Z,19.60
2022-08-31T18:52:22.640Z,19.40
2022-08-31T18:55:09.176Z,19.30
2022-08-31T18:58:03.066Z,19.20
2022-08-31T19:01:02.387Z,19.00
2022-08-31T19:03:48.446Z,19.00
2022-08-31T19:06:39.916Z,18.90
2022-08-31T19:09:26.213Z,18.80
2022-08-31T19:12:18.332Z,18.70
2022-08-31T19:15:04.524Z,18.60
2022-08-31T19:17:50.517Z,18.60
2022-08-31T19:20:36.395Z,18.60
2022-08-31T19:23:25.704Z,18.50
2022-08-31T19:26:32.553Z,18.40
2022-08-31T19:29:24.369Z,18.40
2022-08-31T19:32:10.718Z,18.30
2022-08-31T19:34:58.255Z,18.30
2022-08-31T19:37:44.185Z,18.20
2022-08-31T19:40:38.129Z,18.20
2022-08-31T19:46:32.988Z,18.10
2022-08-31T19:49:19.345Z,18.10
2022-08-31T19:52:07.069Z,18.00
2022-08-31T19:54:53.379Z,18.00
2022-08-31T19:57:43.561Z,17.90
2022-08-31T20:00:30.105Z,17.90
2022-08-31T20:03:19.226Z,17.90
2022-08-31T20:06:07.705Z,17.90
2022-08-31T20:08:54.669Z,17.80
2022-08-31T20:11:42.068Z,17.80
2022-08-31T20:14:28.571Z,17.80
2022-08-31T20:17:14.797Z,17.80
2022-08-31T20:20:02.052Z,17.70
2022-08-31T20:22:48.477Z,17.70
2022-08-31T20:25:45.939Z,17.70
2022-08-31T20:28:32.031Z,17.70
2022-08-31T20:31:21.671Z,17.70
2022-08-31T20:34:09.402Z,17.70
2022-08-31T20:37:00.876Z,17.60
2022-08-31T20:39:47.944Z,17.60
2022-08-31T20:42:33.903Z,17.60
2022-08-31T20:45:19.859Z,17.60
2022-08-31T20:48:25.292Z,17.60
2022-08-31T20:51:16.236Z,17.50
2022-08-31T20:54:02.440Z,17.50
2022-08-31T20:56:53.761Z,17.50
2022-08-31T20:59:41.552Z,17.50
2022-08-31T21:02:29.513Z,17.40
2022-08-31T21:05:37.325Z,17.40
2022-08-31T21:08:22.729Z,17.40
2022-08-31T21:11:16.004Z,17.30
2022-08-31T21:14:03.320Z,17.30
2022-08-31T21:16:50.296Z,17.30
2022-08-31T21:19:39.357Z,17.30
2022-08-31T21:22:25.786Z,17.20
2022-08-31T21:25:14.768Z,17.20
2022-08-31T21:28:03.001Z,17.20
2022-08-31T21:30:50.579Z,17.30
2022-08-31T21:33:37.052Z,17.30
2022-08-31T21:36:23.560Z,17.30
2022-08-31T21:39:13.120Z,17.30
2022-08-31T21:42:00.157Z,17.30
2022-08-31T21:44:46.445Z,17.30
2022-08-31T21:47:34.489Z,17.30
2022-08-31T21:50:21.402Z,17.30
2022-08-31T21:53:07.538Z,17.30
2022-08-31T21:55:54.139Z,17.30
2022-08-31T21:58:40.601Z,17.30
2022-08-31T22:01:30.843Z,17.20
2022-08-31T22:04:21.024Z,17.20
2022-08-31T22:07:08.123Z,17.20
2022-08-31T22:09:57.178Z,17.20
2022-08-31T22:12:43.461Z,17.20
2022-08-31T22:15:30.014Z,17.20
2022-08-31T22:18:59.019Z,17.10
2022-08-31T22:21:27.085Z,17.10
2022-08-31T22:24:26.759Z,17.10
2022-08-31T22:27:14.032Z,17.10
2022-08-31T22:30:03.119Z,17.10
2022-08-31T22:32:50.041Z,17.20
2022-08-31T22:35:39.448Z,17.10
2022-08-31T22:38:25.965Z,17.10
2022-08-31T22:41:12.767Z,17.10
2022-08-31T22:44:00.215Z,17.00
2022-08-31T22:46:49.509Z,17.00
2022-08-31T22:49:35.953Z,17.00
2022-08-31T22:52:22.433Z,17.00
2022-08-31T22:55:10.888Z,17.00
2022-08-31T22:57:56.870Z,17.00
2022-08-31T23:00:47.890Z,17.00
2022-08-31T23:03:34.750Z,17.00
2022-08-31T23:06:23.298Z,16.90
2022-08-31T23:09:11.132Z,17.00
2022-08-31T23:11:59.824Z,16.90
2022-08-31T23:14:46.766Z,17.00
2022-08-31T23:17:36.344Z,16.90
2022-08-31T23:20:24.487Z,17.00
2022-08-31T23:23:10.734Z,17.00
2022-08-31T23:25:57.933Z,17.00
2022-08-31T23:39:26.058Z,16.90
2022-08-31T23:42:16.464Z,16.90
2022-08-31T23:45:02.812Z,16.90
2022-08-31T23:47:49.134Z,16.90
2022-08-31T23:50:35.320Z,16.90
2022-08-31T23:53:28.087Z,17.00
2022-08-31T23:56:14.645Z,17.00
2022-08-31T23:59:01.120Z,17.00
